createdAt,value
2017-07-05T00:00:27.698Z,63.51
2017-07-05T00:01:41.839Z,63.70
2017-07-05T00:02:43.714Z,63.70
2017-07-05T00:03:45.603Z,64.37
2017-07-05T00:04:47.480Z,63.70
2017-07-05T00:05:49.306Z,63.79
2017-07-05T00:06:51.121Z,63.70
2017-07-05T00:07:53.019Z,64.09
2017-07-05T00:08:54.911Z,64.09
2017-07-05T00:09:56.805Z,63.89
2017-07-05T00:11:10.974Z,64.09
2017-07-05T00:12:12.871Z,63.99
2017-07-05T00:13:14.773Z,64.18
2017-07-05T00:14:16.663Z,63.99
2017-07-05T00:15:18.489Z,64.47
2017-07-05T00:16:20.298Z,64.76
2017-07-05T00:17:22.195Z,64.56
2017-07-05T00:18:24.093Z,64.76
2017-07-05T00:19:25.984Z,64.56
2017-07-05T00:20:40.148Z,64.66
2017-07-05T00:21:42.048Z,64.95
2017-07-05T00:22:43.934Z,65.33
2017-07-05T00:23:45.807Z,65.30
2017-07-05T00:24:47.648Z,65.39
2017-07-05T00:25:49.461Z,65.39
2017-07-05T00:26:51.353Z,65.11
2017-07-05T00:27:53.245Z,65.68
2017-07-05T00:28:55.112Z,65.78
2017-07-05T00:30:09.254Z,66.35
2017-07-05T00:31:11.149Z,66.06
2017-07-05T00:32:13.023Z,66.35
2017-07-05T00:33:14.889Z,66.35
2017-07-05T00:34:16.719Z,66.35
2017-07-05T00:35:18.523Z,66.16
2017-07-05T00:36:20.394Z,65.88
2017-07-05T00:37:22.296Z,66.35
2017-07-05T00:38:24.180Z,66.16
2017-07-05T00:39:38.349Z,66.16
2017-07-05T00:40:40.246Z,66.64
2017-07-05T00:41:42.140Z,66.74
2017-07-05T00:42:44.034Z,66.64
2017-07-05T00:43:45.868Z,65.97
2017-07-05T00:44:47.702Z,66.26
2017-07-05T00:45:49.599Z,66.55
2017-07-05T00:46:51.491Z,66.55
2017-07-05T00:47:53.357Z,66.26
2017-07-05T00:49:07.498Z,66.71
2017-07-05T00:50:09.392Z,66.64
2017-07-05T00:51:11.261Z,66.42
2017-07-05T00:52:13.134Z,66.99
2017-07-05T00:53:14.963Z,67.28
2017-07-05T00:54:16.771Z,67.28
2017-07-05T00:55:18.640Z,67.47
2017-07-05T00:56:20.516Z,67.57
2017-07-05T00:57:22.384Z,67.57
2017-07-05T00:58:36.545Z,67.28
2017-07-05T00:59:38.442Z,67.47
2017-07-05T01:00:40.331Z,67.85
2017-07-05T01:01:42.204Z,68.14
2017-07-05T01:02:44.040Z,67.66
2017-07-05T01:03:45.865Z,67.38
2017-07-05T01:04:47.757Z,67.18
2017-07-05T01:05:49.650Z,67.28
2017-07-05T01:06:51.516Z,67.85
2017-07-05T01:08:05.659Z,67.95
2017-07-05T01:09:07.549Z,67.38
2017-07-05T01:10:09.419Z,67.28
2017-07-05T01:11:11.298Z,67.38
2017-07-05T01:12:13.123Z,67.18
2017-07-05T01:13:14.936Z,67.47
2017-07-05T01:14:16.810Z,67.76
2017-07-05T01:15:18.705Z,67.66
2017-07-05T01:16:20.596Z,67.76
2017-07-05T01:17:34.762Z,67.47
2017-07-05T01:18:36.629Z,67.91
2017-07-05T01:19:38.527Z,68.05
2017-07-05T01:20:40.423Z,68.43
2017-07-05T01:21:42.258Z,68.43
2017-07-05T01:22:44.092Z,67.95
2017-07-05T01:23:45.986Z,67.85
2017-07-05T01:24:47.854Z,67.57
2017-07-05T01:25:49.748Z,67.28
2017-07-05T01:27:03.912Z,67.82
2017-07-05T01:28:05.810Z,67.63
2017-07-05T01:29:07.698Z,67.47
2017-07-05T01:30:09.566Z,67.47
2017-07-05T01:31:11.377Z,67.91
2017-07-05T01:32:13.207Z,67.54
2017-07-05T01:33:15.078Z,67.91
2017-07-05T01:34:16.972Z,67.66
2017-07-05T01:35:18.855Z,68.05
2017-07-05T01:36:33.004Z,67.44
2017-07-05T01:37:34.900Z,67.44
2017-07-05T01:38:36.792Z,67.25
2017-07-05T01:39:38.656Z,67.72
2017-07-05T01:40:40.483Z,67.44
2017-07-05T01:41:42.291Z,67.57
2017-07-05T01:42:44.160Z,67.82
2017-07-05T01:43:46.056Z,67.63
2017-07-05T01:44:47.922Z,67.25
2017-07-05T01:46:02.062Z,67.82
2017-07-05T01:47:03.934Z,67.44
2017-07-05T01:48:05.823Z,67.25
2017-07-05T01:49:07.694Z,67.44
2017-07-05T01:50:09.527Z,67.72
2017-07-05T01:51:11.353Z,67.63
2017-07-05T01:52:13.219Z,67.34
2017-07-05T01:53:15.085Z,67.25
2017-07-05T01:54:16.951Z,67.63
2017-07-05T01:55:31.163Z,67.54
2017-07-05T01:56:33.034Z,67.91
2017-07-05T01:57:34.931Z,67.54
2017-07-05T01:58:36.822Z,67.72
2017-07-05T01:59:38.655Z,67.72
2017-07-05T02:00:40.485Z,67.82
2017-07-05T02:01:42.372Z,67.91
2017-07-05T02:02:44.280Z,68.40
2017-07-05T02:03:46.135Z,68.40
2017-07-05T02:05:00.383Z,67.72
2017-07-05T02:06:02.216Z,67.82
2017-07-05T02:07:04.076Z,68.01
2017-07-05T02:08:05.946Z,68.11
2017-07-05T02:09:07.758Z,67.91
2017-07-05T02:10:09.580Z,68.01
2017-07-05T02:11:11.446Z,67.72
2017-07-05T02:12:13.318Z,67.72
2017-07-05T02:13:15.207Z,67.82
2017-07-05T02:14:29.351Z,67.63
2017-07-05T02:15:31.245Z,67.63
2017-07-05T02:16:33.138Z,67.82
2017-07-05T02:17:35.027Z,67.44
2017-07-05T02:18:36.829Z,67.34
2017-07-05T02:19:38.637Z,67.54
2017-07-05T02:20:40.530Z,67.91
2017-07-05T02:21:42.420Z,67.91
2017-07-05T02:22:44.285Z,67.54
2017-07-05T02:23:58.459Z,68.01
2017-07-05T02:25:00.349Z,68.01
2017-07-05T02:26:02.218Z,68.21
2017-07-05T02:27:04.091Z,68.11
2017-07-05T02:28:05.898Z,68.01
2017-07-05T02:29:07.708Z,67.82
2017-07-05T02:30:09.579Z,68.11
2017-07-05T02:31:11.473Z,68.01
2017-07-05T02:32:13.366Z,68.30
2017-07-05T02:33:27.538Z,68.49
2017-07-05T02:34:29.431Z,67.82
2017-07-05T02:35:31.316Z,67.72
2017-07-05T02:36:33.180Z,68.40
2017-07-05T02:37:34.991Z,68.21
2017-07-05T02:38:36.799Z,68.30
2017-07-05T02:39:38.689Z,68.30
2017-07-05T02:40:40.585Z,68.17
2017-07-05T02:41:42.470Z,68.17
2017-07-05T02:42:56.614Z,68.01
2017-07-05T02:43:58.483Z,68.36
2017-07-05T02:45:00.346Z,68.07
2017-07-05T02:46:02.328Z,68.17
2017-07-05T02:47:04.225Z,67.91
2017-07-05T02:48:06.053Z,68.01
2017-07-05T02:49:07.892Z,67.82
2017-07-05T02:50:09.722Z,67.82
2017-07-05T02:51:11.549Z,67.63
2017-07-05T02:52:25.698Z,67.44
2017-07-05T02:53:27.598Z,67.25
2017-07-05T02:54:29.490Z,67.34
2017-07-05T02:55:31.381Z,67.44
2017-07-05T02:56:33.213Z,67.34
2017-07-05T02:57:35.046Z,67.05
2017-07-05T02:58:36.934Z,67.05
2017-07-05T02:59:38.804Z,66.96
2017-07-05T03:00:40.701Z,66.96
2017-07-05T03:01:54.848Z,66.58
2017-07-05T03:02:56.721Z,66.38
2017-07-05T03:03:58.615Z,66.38
2017-07-05T03:05:00.488Z,66.77
2017-07-05T03:06:02.328Z,67.05
2017-07-05T03:07:04.140Z,66.86
2017-07-05T03:08:06.007Z,66.67
2017-07-05T03:09:07.899Z,66.51
2017-07-05T03:10:09.776Z,66.80
2017-07-05T03:11:23.943Z,66.71
2017-07-05T03:12:25.807Z,66.32
2017-07-05T03:13:27.680Z,66.61
2017-07-05T03:14:29.571Z,66.42
2017-07-05T03:15:31.388Z,66.32
2017-07-05T03:16:33.221Z,66.61
2017-07-05T03:17:35.118Z,66.51
2017-07-05T03:18:37.011Z,66.61
2017-07-05T03:19:38.887Z,66.71
2017-07-05T03:20:53.090Z,66.03
2017-07-05T03:21:54.922Z,66.03
2017-07-05T03:22:56.753Z,66.13
2017-07-05T03:23:58.626Z,66.03
2017-07-05T03:25:00.491Z,65.84
2017-07-05T03:26:02.339Z,65.75
2017-07-05T03:27:04.143Z,65.84
2017-07-05T03:28:05.979Z,65.75
2017-07-05T03:29:07.874Z,65.75
2017-07-05T03:30:22.085Z,65.68
2017-07-05T03:31:23.949Z,65.55
2017-07-05T03:32:25.821Z,65.75
2017-07-05T03:33:27.713Z,65.59
2017-07-05T03:34:29.526Z,65.88
2017-07-05T03:35:31.359Z,66.06
2017-07-05T03:36:33.229Z,65.49
2017-07-05T03:37:35.106Z,65.30
2017-07-05T03:38:37.004Z,65.49
2017-07-05T03:39:51.141Z,65.49
2017-07-05T03:40:53.010Z,65.59
2017-07-05T03:41:54.882Z,65.39
2017-07-05T03:42:56.750Z,65.20
2017-07-05T03:43:58.584Z,64.92
2017-07-05T03:45:00.408Z,65.11
2017-07-05T03:46:02.287Z,65.11
2017-07-05T03:47:04.156Z,64.92
2017-07-05T03:48:06.048Z,65.11
2017-07-05T03:49:20.196Z,65.20
2017-07-05T03:50:22.069Z,65.11
2017-07-05T03:51:23.967Z,65.39
2017-07-05T03:52:25.861Z,65.55
2017-07-05T03:53:27.700Z,65.39
2017-07-05T03:54:29.533Z,65.30
2017-07-05T03:55:31.403Z,65.59
2017-07-05T03:56:33.298Z,65.68
2017-07-05T03:57:35.200Z,65.30
2017-07-05T03:58:49.369Z,65.49
2017-07-05T03:59:51.240Z,65.49
2017-07-05T04:00:53.133Z,65.11
2017-07-05T04:01:55.007Z,65.49
2017-07-05T04:02:56.843Z,65.62
2017-07-05T04:03:58.676Z,64.92
2017-07-05T04:05:00.570Z,65.05
2017-07-05T04:06:02.444Z,64.95
2017-07-05T04:07:04.313Z,65.23
2017-07-05T04:08:18.468Z,64.76
2017-07-05T04:09:20.364Z,64.66
2017-07-05T04:10:22.261Z,65.14
2017-07-05T04:11:24.137Z,64.92
2017-07-05T04:12:25.974Z,65.49
2017-07-05T04:13:27.783Z,65.59
2017-07-05T04:14:29.658Z,65.68
2017-07-05T04:15:31.557Z,65.49
2017-07-05T04:16:33.457Z,65.52
2017-07-05T04:17:47.633Z,65.52
2017-07-05T04:18:49.534Z,65.52
2017-07-05T04:19:51.404Z,65.23
2017-07-05T04:20:53.274Z,64.95
2017-07-05T04:21:55.088Z,64.95
2017-07-05T04:22:56.926Z,65.14
2017-07-05T04:23:58.800Z,65.05
2017-07-05T04:25:00.696Z,65.59
2017-07-05T04:26:02.595Z,65.33
2017-07-05T04:27:16.768Z,65.49
2017-07-05T04:28:18.641Z,65.33
2017-07-05T04:29:20.541Z,65.62
2017-07-05T04:30:22.435Z,65.43
2017-07-05T04:31:24.252Z,65.43
2017-07-05T04:32:26.088Z,65.33
2017-07-05T04:33:27.963Z,65.72
2017-07-05T04:34:29.861Z,65.72
2017-07-05T04:35:31.760Z,66.10
2017-07-05T04:36:45.933Z,65.81
2017-07-05T04:37:47.805Z,66.19
2017-07-05T04:38:49.677Z,66.19
2017-07-05T04:39:51.576Z,66.19
2017-07-05T04:40:53.410Z,66.10
2017-07-05T04:41:55.225Z,66.49
2017-07-05T04:42:57.096Z,66.29
2017-07-05T04:43:58.972Z,65.62
2017-07-05T04:45:00.870Z,65.91
2017-07-05T04:46:15.080Z,65.62
2017-07-05T04:47:16.958Z,66.10
2017-07-05T04:48:18.857Z,65.81
2017-07-05T04:49:20.759Z,65.91
2017-07-05T04:50:22.568Z,65.62
2017-07-05T04:51:24.402Z,65.33
2017-07-05T04:52:26.308Z,65.56
2017-07-05T04:53:28.207Z,65.56
2017-07-05T04:54:30.108Z,65.46
2017-07-05T04:55:44.285Z,65.56
2017-07-05T04:56:46.162Z,65.17
2017-07-05T04:57:48.040Z,65.20
2017-07-05T04:58:49.914Z,65.30
2017-07-05T04:59:51.728Z,65.01
2017-07-05T05:00:53.565Z,64.72
2017-07-05T05:01:55.464Z,64.43
2017-07-05T05:02:57.363Z,63.76
2017-07-05T05:03:59.263Z,63.96
2017-07-05T05:05:13.436Z,63.76
2017-07-05T05:06:15.309Z,63.38
2017-07-05T05:07:17.209Z,63.09
2017-07-05T05:08:19.082Z,62.74
2017-07-05T05:09:20.911Z,62.93
2017-07-05T05:10:22.724Z,62.45
2017-07-05T05:11:24.603Z,62.35
2017-07-05T05:12:26.496Z,62.07
2017-07-05T05:13:28.373Z,61.81
2017-07-05T05:14:42.526Z,61.61
2017-07-05T05:15:44.423Z,61.81
2017-07-05T05:16:46.302Z,61.23
2017-07-05T05:17:48.199Z,61.33
2017-07-05T05:18:50.038Z,60.75
2017-07-05T05:19:51.877Z,60.21
2017-07-05T05:20:53.754Z,60.21
2017-07-05T05:21:55.655Z,60.01
2017-07-05T05:22:57.554Z,59.24
2017-07-05T05:24:11.725Z,59.08
2017-07-05T05:25:13.597Z,59.08
2017-07-05T05:26:15.502Z,58.60
2017-07-05T05:27:17.397Z,58.50
2017-07-05T05:28:19.208Z,58.12
2017-07-05T05:29:21.024Z,57.28
2017-07-05T05:30:22.897Z,57.57
2017-07-05T05:31:24.798Z,56.90
2017-07-05T05:32:26.694Z,57.09
2017-07-05T05:33:40.843Z,56.22
2017-07-05T05:34:42.718Z,56.41
2017-07-05T05:35:44.619Z,56.03
2017-07-05T05:36:46.508Z,55.96
2017-07-05T05:37:48.326Z,55.19
2017-07-05T05:38:50.171Z,55.02
2017-07-05T05:39:52.066Z,54.18
2017-07-05T05:40:53.951Z,53.25
2017-07-05T05:41:55.852Z,52.76
2017-07-05T05:43:10.029Z,51.53
2017-07-05T05:44:11.928Z,50.86
2017-07-05T05:45:13.829Z,50.50
2017-07-05T05:46:15.706Z,49.95
2017-07-05T05:47:17.550Z,49.37
2017-07-05T05:48:19.389Z,48.79
2017-07-05T05:49:21.286Z,48.88
2017-07-05T05:50:23.183Z,48.13
2017-07-05T05:51:25.059Z,46.97
2017-07-05T05:52:39.286Z,46.97
2017-07-05T05:53:41.191Z,46.90
2017-07-05T05:54:43.091Z,47.26
2017-07-05T05:55:44.971Z,47.53
2017-07-05T05:56:46.813Z,48.39
2017-07-05T05:57:48.630Z,48.97
2017-07-05T05:58:50.531Z,49.92
2017-07-05T05:59:52.434Z,50.43
2017-07-05T06:00:54.335Z,50.52
2017-07-05T06:02:08.512Z,49.65
2017-07-05T06:03:10.390Z,49.17
2017-07-05T06:04:12.292Z,48.88
2017-07-05T06:05:14.194Z,48.97
2017-07-05T06:06:16.036Z,48.39
2017-07-05T06:07:17.874Z,48.69
2017-07-05T06:08:19.758Z,49.37
2017-07-05T06:09:21.659Z,49.95
2017-07-05T06:10:23.539Z,50.40
2017-07-05T06:11:37.710Z,50.31
2017-07-05T06:12:39.588Z,50.86
2017-07-05T06:13:41.473Z,51.80
2017-07-05T06:14:43.369Z,51.61
2017-07-05T06:15:45.190Z,52.31
2017-07-05T06:16:47.029Z,52.47
2017-07-05T06:17:48.911Z,52.86
2017-07-05T06:18:50.787Z,52.09
2017-07-05T06:19:52.689Z,51.99
2017-07-05T06:21:06.868Z,52.37
2017-07-05T06:22:08.748Z,52.01
2017-07-05T06:23:10.649Z,51.73
2017-07-05T06:24:12.557Z,51.63
2017-07-05T06:25:14.374Z,50.89
2017-07-05T06:26:16.209Z,50.50
2017-07-05T06:27:18.089Z,50.33
2017-07-05T06:28:19.967Z,49.55
2017-07-05T06:29:21.851Z,49.49
2017-07-05T06:30:36.030Z,49.12
2017-07-05T06:31:37.905Z,49.22
2017-07-05T06:32:39.785Z,48.44
2017-07-05T06:33:41.685Z,48.64
2017-07-05T06:34:43.504Z,48.35
2017-07-05T06:35:45.318Z,48.64
2017-07-05T06:36:47.198Z,48.74
2017-07-05T06:37:49.077Z,48.54
2017-07-05T06:38:50.980Z,49.41
2017-07-05T06:40:05.132Z,49.70
2017-07-05T06:41:07.011Z,50.67
2017-07-05T06:42:08.918Z,49.70
2017-07-05T06:43:10.817Z,48.93
2017-07-05T06:44:12.661Z,48.74
2017-07-05T06:45:14.496Z,48.64
2017-07-05T06:46:16.400Z,48.93
2017-07-05T06:47:18.286Z,48.74
2017-07-05T06:48:20.183Z,48.54
2017-07-05T06:49:34.345Z,48.54
2017-07-05T06:50:36.238Z,48.83
2017-07-05T06:51:38.120Z,48.93
2017-07-05T06:52:40.024Z,48.74
2017-07-05T06:53:41.860Z,49.12
2017-07-05T06:54:43.677Z,48.83
2017-07-05T06:55:45.545Z,48.54
2017-07-05T06:56:47.457Z,48.27
2017-07-05T06:57:49.354Z,47.31
2017-07-05T06:59:03.507Z,47.02
2017-07-05T07:00:05.386Z,46.25
2017-07-05T07:01:07.282Z,45.86
2017-07-05T07:02:09.158Z,45.76
2017-07-05T07:03:10.977Z,45.40
2017-07-05T07:04:12.817Z,45.59
2017-07-05T07:05:14.722Z,45.20
2017-07-05T07:06:16.627Z,44.72
2017-07-05T07:07:18.521Z,45.10
2017-07-05T07:08:32.678Z,44.54
2017-07-05T07:09:34.554Z,44.93
2017-07-05T07:10:36.428Z,45.01
2017-07-05T07:11:38.300Z,45.20
2017-07-05T07:12:40.121Z,45.68
2017-07-05T07:13:41.959Z,46.17
2017-07-05T07:14:43.854Z,46.56
2017-07-05T07:15:45.730Z,47.24
2017-07-05T07:16:47.609Z,47.21
2017-07-05T07:18:01.789Z,47.33
2017-07-05T07:19:03.692Z,47.24
2017-07-05T07:20:05.602Z,47.24
2017-07-05T07:21:07.498Z,46.94
2017-07-05T07:22:09.336Z,46.84
2017-07-05T07:23:11.148Z,46.66
2017-07-05T07:24:13.031Z,46.36
2017-07-05T07:25:14.910Z,45.88
2017-07-05T07:26:16.815Z,46.26
2017-07-05T07:27:30.992Z,45.98
2017-07-05T07:28:32.867Z,45.49
2017-07-05T07:29:34.742Z,45.40
2017-07-05T07:30:36.624Z,44.93
2017-07-05T07:31:38.467Z,44.45
2017-07-05T07:32:40.306Z,44.16
2017-07-05T07:33:42.187Z,43.99
2017-07-05T07:34:44.087Z,43.99
2017-07-05T07:35:45.959Z,43.99
2017-07-05T07:37:00.114Z,43.41
2017-07-05T07:38:01.989Z,42.24
2017-07-05T07:39:03.869Z,41.55
2017-07-05T07:40:05.768Z,42.03
2017-07-05T07:41:07.614Z,42.51
2017-07-05T07:42:09.455Z,43.48
2017-07-05T07:43:11.362Z,43.58
2017-07-05T07:44:13.264Z,43.50
2017-07-05T07:45:15.143Z,42.92
2017-07-05T07:46:29.295Z,43.02
2017-07-05T07:47:31.173Z,43.60
2017-07-05T07:48:33.078Z,43.31
2017-07-05T07:49:34.984Z,42.94
2017-07-05T07:50:36.823Z,42.09
2017-07-05T07:51:38.663Z,41.22
2017-07-05T07:52:40.548Z,40.85
2017-07-05T07:53:42.456Z,40.17
2017-07-05T07:54:44.364Z,40.00
2017-07-05T07:55:58.516Z,39.90
2017-07-05T07:57:00.397Z,39.43
2017-07-05T07:58:02.304Z,38.27
2017-07-05T07:59:04.255Z,37.99
2017-07-05T08:00:06.025Z,37.41
2017-07-05T08:01:07.841Z,37.12
2017-07-05T08:02:09.724Z,36.85
2017-07-05T08:03:11.627Z,36.85
2017-07-05T08:04:13.535Z,36.77
2017-07-05T08:05:27.713Z,36.28
2017-07-05T08:06:29.627Z,35.89
2017-07-05T08:07:31.507Z,36.18
2017-07-05T08:08:33.382Z,36.59
2017-07-05T08:09:35.211Z,35.71
2017-07-05T08:10:37.047Z,35.81
2017-07-05T08:11:38.931Z,35.71
2017-07-05T08:12:40.832Z,35.42
2017-07-05T08:13:42.714Z,35.44
2017-07-05T08:14:56.874Z,35.34
2017-07-05T08:15:58.756Z,35.03
2017-07-05T08:17:00.657Z,34.56
2017-07-05T08:18:02.545Z,34.47
2017-07-05T08:19:04.391Z,34.55
2017-07-05T08:20:06.234Z,35.41
2017-07-05T08:21:08.136Z,35.60
2017-07-05T08:22:10.017Z,36.18
2017-07-05T08:23:11.898Z,35.99
2017-07-05T08:24:26.077Z,35.89
2017-07-05T08:25:27.965Z,35.60
2017-07-05T08:26:29.868Z,35.60
2017-07-05T08:27:31.768Z,35.99
2017-07-05T08:28:33.586Z,35.81
2017-07-05T08:29:35.414Z,35.52
2017-07-05T08:30:37.311Z,35.23
2017-07-05T08:31:39.199Z,35.23
2017-07-05T08:32:41.103Z,34.76
2017-07-05T08:33:55.289Z,34.56
2017-07-05T08:34:57.168Z,34.39
2017-07-05T08:35:59.071Z,34.29
2017-07-05T08:37:00.975Z,34.01
2017-07-05T08:38:02.818Z,33.82
2017-07-05T08:39:04.638Z,33.33
2017-07-05T08:40:06.520Z,33.51
2017-07-05T08:41:08.403Z,33.80
2017-07-05T08:42:10.305Z,33.90
2017-07-05T08:43:24.467Z,33.80
2017-07-05T08:44:26.353Z,33.78
2017-07-05T08:45:28.250Z,34.35
2017-07-05T08:46:30.135Z,34.94
2017-07-05T08:47:31.973Z,35.42
2017-07-05T08:48:33.793Z,35.13
2017-07-05T08:49:35.675Z,35.02
2017-07-05T08:50:37.555Z,35.50
2017-07-05T08:51:39.434Z,35.80
2017-07-05T08:52:53.597Z,35.03
2017-07-05T08:53:55.477Z,35.71
2017-07-05T08:54:57.382Z,35.91
2017-07-05T08:55:59.264Z,35.89
2017-07-05T08:57:01.102Z,36.18
2017-07-05T08:58:02.929Z,36.28
2017-07-05T08:59:04.811Z,36.38
2017-07-05T09:00:06.721Z,36.55
2017-07-05T09:01:08.624Z,36.94
2017-07-05T09:02:22.781Z,37.30
2017-07-05T09:03:24.688Z,38.06
2017-07-05T09:04:26.567Z,38.25
2017-07-05T09:05:28.470Z,39.12
2017-07-05T09:06:30.312Z,39.69
2017-07-05T09:07:32.155Z,39.90
2017-07-05T09:08:34.035Z,40.00
2017-07-05T09:09:35.939Z,39.70
2017-07-05T09:10:37.822Z,39.22
2017-07-05T09:11:51.976Z,39.20
2017-07-05T09:12:53.858Z,39.69
2017-07-05T09:13:55.756Z,39.88
2017-07-05T09:14:57.636Z,40.08
2017-07-05T09:15:59.475Z,40.26
2017-07-05T09:17:01.294Z,39.88
2017-07-05T09:18:03.172Z,39.88
2017-07-05T09:19:05.078Z,40.00
2017-07-05T09:20:06.979Z,39.70
2017-07-05T09:21:21.133Z,40.19
2017-07-05T09:22:23.016Z,40.19
2017-07-05T09:23:24.922Z,39.82
2017-07-05T09:24:26.829Z,39.72
2017-07-05T09:25:28.674Z,39.43
2017-07-05T09:26:30.491Z,39.43
2017-07-05T09:27:32.397Z,39.61
2017-07-05T09:28:34.277Z,39.90
2017-07-05T09:29:36.156Z,39.80
2017-07-05T09:30:50.313Z,39.82
2017-07-05T09:31:52.218Z,39.36
2017-07-05T09:32:54.094Z,39.16
2017-07-05T09:33:55.974Z,39.06
2017-07-05T09:34:57.794Z,38.31
2017-07-05T09:35:59.637Z,38.11
2017-07-05T09:37:01.516Z,38.21
2017-07-05T09:38:03.416Z,38.31
2017-07-05T09:39:05.300Z,38.60
2017-07-05T09:40:19.480Z,38.21
2017-07-05T09:41:21.360Z,38.50
2017-07-05T09:42:23.264Z,38.11
2017-07-05T09:43:25.145Z,38.31
2017-07-05T09:44:26.984Z,38.70
2017-07-05T09:45:28.806Z,38.57
2017-07-05T09:46:30.713Z,38.57
2017-07-05T09:47:32.616Z,38.57
2017-07-05T09:48:34.523Z,38.67
2017-07-05T09:49:48.701Z,38.21
2017-07-05T09:50:50.608Z,38.01
2017-07-05T09:51:52.509Z,37.92
2017-07-05T09:52:54.389Z,37.26
2017-07-05T09:53:56.215Z,37.06
2017-07-05T09:54:58.093Z,36.69
2017-07-05T09:56:00.012Z,36.40
2017-07-05T09:57:01.910Z,36.71
2017-07-05T09:58:03.801Z,35.73
2017-07-05T09:59:17.960Z,35.65
2017-07-05T10:00:19.838Z,35.46
2017-07-05T10:01:21.740Z,35.08
2017-07-05T10:02:23.621Z,34.79
2017-07-05T10:03:25.440Z,34.40
2017-07-05T10:04:27.254Z,34.50
2017-07-05T10:05:29.135Z,34.79
2017-07-05T10:06:31.014Z,34.99
2017-07-05T10:07:32.918Z,35.08
2017-07-05T10:08:47.100Z,35.36
2017-07-05T10:09:49.003Z,35.85
2017-07-05T10:10:50.905Z,35.83
2017-07-05T10:11:52.802Z,35.63
2017-07-05T10:12:54.618Z,35.91
2017-07-05T10:13:56.438Z,36.40
2017-07-05T10:14:58.321Z,36.38
2017-07-05T10:16:00.197Z,36.94
2017-07-05T10:17:02.073Z,37.24
2017-07-05T10:18:16.228Z,38.19
2017-07-05T10:19:18.108Z,38.85
2017-07-05T10:20:20.009Z,39.90
2017-07-05T10:21:21.887Z,40.56
2017-07-05T10:22:23.706Z,40.85
2017-07-05T10:23:25.519Z,40.85
2017-07-05T10:24:27.399Z,41.51
2017-07-05T10:25:29.285Z,41.41
2017-07-05T10:26:31.190Z,42.55
2017-07-05T10:27:45.371Z,43.60
2017-07-05T10:28:47.281Z,43.79
2017-07-05T10:29:49.180Z,44.27
2017-07-05T10:30:51.083Z,43.79
2017-07-05T10:31:52.925Z,43.79
2017-07-05T10:32:54.766Z,43.79
2017-07-05T10:33:56.669Z,43.96
2017-07-05T10:34:58.547Z,44.74
2017-07-05T10:36:00.423Z,45.22
2017-07-05T10:37:14.584Z,43.99
2017-07-05T10:38:16.492Z,43.99
2017-07-05T10:39:18.402Z,43.99
2017-07-05T10:40:20.298Z,44.06
2017-07-05T10:41:22.144Z,44.74
2017-07-05T10:42:23.984Z,45.71
2017-07-05T10:43:25.868Z,46.09
2017-07-05T10:44:27.769Z,46.58
2017-07-05T10:45:29.673Z,47.36
2017-07-05T10:46:43.827Z,47.38
2017-07-05T10:47:45.736Z,47.19
2017-07-05T10:48:47.620Z,47.09
2017-07-05T10:49:49.498Z,46.41
2017-07-05T10:50:51.348Z,46.58
2017-07-05T10:51:53.186Z,47.16
2017-07-05T10:52:55.095Z,47.36
2017-07-05T10:53:56.998Z,47.91
2017-07-05T10:54:58.908Z,48.39
2017-07-05T10:56:13.083Z,48.30
2017-07-05T10:57:14.962Z,48.01
2017-07-05T10:58:16.863Z,48.79
2017-07-05T10:59:18.738Z,49.24
2017-07-05T11:00:20.580Z,49.46
2017-07-05T11:01:22.404Z,49.46
2017-07-05T11:02:24.344Z,49.37
2017-07-05T11:03:26.210Z,48.69
2017-07-05T11:04:28.109Z,48.49
2017-07-05T11:05:42.276Z,48.69
2017-07-05T11:06:44.144Z,48.66
2017-07-05T11:07:46.045Z,48.76
2017-07-05T11:08:47.946Z,48.66
2017-07-05T11:09:49.770Z,48.95
2017-07-05T11:10:51.611Z,48.95
2017-07-05T11:11:53.485Z,48.30
2017-07-05T11:12:55.369Z,47.43
2017-07-05T11:13:57.274Z,47.79
2017-07-05T11:15:11.453Z,47.89
2017-07-05T11:16:13.335Z,48.08
2017-07-05T11:17:15.237Z,48.39
2017-07-05T11:18:17.136Z,47.91
2017-07-05T11:19:18.959Z,47.36
2017-07-05T11:20:20.804Z,46.97
2017-07-05T11:21:22.710Z,47.16
2017-07-05T11:22:24.612Z,46.58
2017-07-05T11:23:26.494Z,45.90
2017-07-05T11:24:40.652Z,45.34
2017-07-05T11:25:42.554Z,44.88
2017-07-05T11:26:44.437Z,44.61
2017-07-05T11:27:46.342Z,44.34
2017-07-05T11:28:48.192Z,42.89
2017-07-05T11:29:50.035Z,42.21
2017-07-05T11:30:51.937Z,42.43
2017-07-05T11:31:53.820Z,41.47
2017-07-05T11:32:55.698Z,41.18
2017-07-05T11:34:09.855Z,40.91
2017-07-05T11:35:11.762Z,40.15
2017-07-05T11:36:13.643Z,39.69
2017-07-05T11:37:15.523Z,39.22
2017-07-05T11:38:17.366Z,38.34
2017-07-05T11:39:19.209Z,37.58
2017-07-05T11:40:21.087Z,37.29
2017-07-05T11:41:22.971Z,36.90
2017-07-05T11:42:24.880Z,37.08
2017-07-05T11:43:39.137Z,36.88
2017-07-05T11:44:41.070Z,36.88
2017-07-05T11:45:42.976Z,36.88
2017-07-05T11:46:44.879Z,37.37
2017-07-05T11:47:46.727Z,38.13
2017-07-05T11:48:48.572Z,38.60
2017-07-05T11:49:50.481Z,39.08
2017-07-05T11:50:52.385Z,39.45
2017-07-05T11:51:54.267Z,40.01
2017-07-05T11:53:08.423Z,40.67
2017-07-05T11:54:10.310Z,40.67
2017-07-05T11:55:12.209Z,41.63
2017-07-05T11:56:14.091Z,42.52
2017-07-05T11:57:15.915Z,41.55
2017-07-05T11:58:17.762Z,41.36
2017-07-05T11:59:19.666Z,41.26
2017-07-05T12:00:21.549Z,41.24
2017-07-05T12:01:23.432Z,41.92
2017-07-05T12:02:37.610Z,42.57
2017-07-05T12:03:39.491Z,43.54
2017-07-05T12:04:41.397Z,43.45
2017-07-05T12:05:43.276Z,43.76
2017-07-05T12:06:45.105Z,44.05
2017-07-05T12:07:46.918Z,43.76
2017-07-05T12:08:48.825Z,43.57
2017-07-05T12:09:50.731Z,42.89
2017-07-05T12:10:52.636Z,43.18
2017-07-05T12:12:06.812Z,43.37
2017-07-05T12:13:08.689Z,43.40
2017-07-05T12:14:10.572Z,43.59
2017-07-05T12:15:12.472Z,43.49
2017-07-05T12:16:14.294Z,42.91
2017-07-05T12:17:16.148Z,43.68
2017-07-05T12:18:18.030Z,42.44
2017-07-05T12:19:19.911Z,41.67
2017-07-05T12:20:21.789Z,41.64
2017-07-05T12:21:35.972Z,41.64
2017-07-05T12:22:37.846Z,42.23
2017-07-05T12:23:39.727Z,42.35
2017-07-05T12:24:41.634Z,41.57
2017-07-05T12:25:43.476Z,40.89
2017-07-05T12:26:45.316Z,40.69
2017-07-05T12:27:47.200Z,40.31
2017-07-05T12:28:49.112Z,40.11
2017-07-05T12:29:51.012Z,40.01
2017-07-05T12:31:05.200Z,40.09
2017-07-05T12:32:07.109Z,40.58
2017-07-05T12:33:09.017Z,40.31
2017-07-05T12:34:10.944Z,40.31
2017-07-05T12:35:12.764Z,39.92
2017-07-05T12:36:14.576Z,39.82
2017-07-05T12:37:16.458Z,40.11
2017-07-05T12:38:18.344Z,40.21
2017-07-05T12:39:20.244Z,40.60
2017-07-05T12:40:34.450Z,40.89
2017-07-05T12:41:36.335Z,40.89
2017-07-05T12:42:38.241Z,40.41
2017-07-05T12:43:40.154Z,39.75
2017-07-05T12:44:41.987Z,39.26
2017-07-05T12:45:43.831Z,39.06
2017-07-05T12:46:45.739Z,39.84
2017-07-05T12:47:47.645Z,40.03
2017-07-05T12:48:49.525Z,39.94
2017-07-05T12:50:03.706Z,39.43
2017-07-05T12:51:05.617Z,39.92
2017-07-05T12:52:07.523Z,40.29
2017-07-05T12:53:09.429Z,40.87
2017-07-05T12:54:11.248Z,40.58
2017-07-05T12:55:13.090Z,40.19
2017-07-05T12:56:15.001Z,40.39
2017-07-05T12:57:16.902Z,40.67
2017-07-05T12:58:18.782Z,42.54
2017-07-05T12:59:32.946Z,40.87
2017-07-05T13:00:34.855Z,40.58
2017-07-05T13:01:36.761Z,40.95
2017-07-05T13:02:38.639Z,40.85
2017-07-05T13:03:40.473Z,40.85
2017-07-05T13:04:42.316Z,40.95
2017-07-05T13:05:44.323Z,41.33
2017-07-05T13:06:46.226Z,40.87
2017-07-05T13:07:48.131Z,40.85
2017-07-05T13:09:02.309Z,41.16
2017-07-05T13:10:04.192Z,40.39
2017-07-05T13:11:06.103Z,40.19
2017-07-05T13:12:08.000Z,40.19
2017-07-05T13:13:09.821Z,40.31
2017-07-05T13:14:11.643Z,39.72
2017-07-05T13:15:13.521Z,39.14
2017-07-05T13:16:15.405Z,39.22
2017-07-05T13:17:17.284Z,39.70
2017-07-05T13:18:31.492Z,39.80
2017-07-05T13:19:33.373Z,40.19
2017-07-05T13:20:35.279Z,39.90
2017-07-05T13:21:37.158Z,39.59
2017-07-05T13:22:38.982Z,40.46
2017-07-05T13:23:40.802Z,40.66
2017-07-05T13:24:42.704Z,40.29
2017-07-05T13:25:44.588Z,40.19
2017-07-05T13:26:46.495Z,40.87
2017-07-05T13:28:00.696Z,40.87
2017-07-05T13:29:02.558Z,40.77
2017-07-05T13:30:04.435Z,41.05
2017-07-05T13:31:06.322Z,41.45
2017-07-05T13:32:08.160Z,42.13
2017-07-05T13:33:09.985Z,42.23
2017-07-05T13:34:11.891Z,42.69